Time;durP1;ratioP1;P1;durP2;ratioP2;P2;SDS_P1;SDS_P2;PMS_P1;PMS_P2;Temp;Humidity;BMP_temperature;BMP_pressure;BME280_temperature;BME280_humidity;BME280_pressure;Samples;Min_cycle;Max_cycle;Signal;HPM_P1;HPM_P2
2024/01/21 00:01:34;;;;;;;3.43;1.90;;;2.70;43.90;;;;;;5052937;28;20198;-81
2024/01/21 00:04:02;;;;;;;2.60;1.77;;;2.70;43.80;;;;;;5057804;28;20221;-81
2024/01/21 00:06:29;;;;;;;3.17;1.77;;;2.70;43.80;;;;;;5062423;28;20207;-81
2024/01/21 00:08:57;;;;;;;3.40;1.87;;;2.70;43.20;;;;;;5071455;28;20193;-81
2024/01/21 00:11:25;;;;;;;2.90;1.60;;;2.80;43.00;;;;;;5057984;28;20208;-81
2024/01/21 00:13:53;;;;;;;3.03;1.60;;;2.80;42.70;;;;;;5057909;28;20231;-81
2024/01/21 00:16:21;;;;;;;1.77;1.17;;;2.90;42.80;;;;;;5057556;28;20217;-81
2024/01/21 00:18:48;;;;;;;4.70;1.50;;;2.90;42.40;;;;;;5072812;28;20235;-81
2024/01/21 00:21:16;;;;;;;2.83;1.80;;;2.90;42.00;;;;;;5065119;28;20196;-81
2024/01/21 00:23:44;;;;;;;2.00;1.70;;;2.90;41.70;;;;;;5058789;28;20220;-81
2024/01/21 00:26:11;;;;;;;1.87;1.40;;;2.90;42.20;;;;;;5057318;28;20196;-81
2024/01/21 00:28:41;;;;;;;2.43;1.20;;;3.10;41.50;;;;;;5057969;28;20189;-82
2024/01/21 00:31:08;;;;;;;2.00;1.57;;;3.00;41.20;;;;;;5075316;28;20204;-81
2024/01/21 00:33:36;;;;;;;2.33;1.63;;;3.10;41.30;;;;;;5073625;28;20220;-81
2024/01/21 00:36:03;;;;;;;2.27;1.20;;;3.10;41.20;;;;;;5059603;28;20229;-82
2024/01/21 00:38:31;;;;;;;1.70;1.40;;;3.10;40.60;;;;;;5060191;28;20213;-81
2024/01/21 00:40:59;;;;;;;2.47;1.80;;;3.20;40.80;;;;;;5063492;28;20201;-81
2024/01/21 00:43:26;;;;;;;1.87;1.37;;;3.20;39.90;;;;;;5069796;28;20227;-81
2024/01/21 00:45:55;;;;;;;2.97;1.50;;;3.30;39.90;;;;;;5065920;28;20198;-81
2024/01/21 00:48:23;;;;;;;2.07;1.40;;;3.30;39.70;;;;;;5074485;28;20205;-81
2024/01/21 00:50:50;;;;;;;1.63;1.50;;;3.40;39.90;;;;;;5067912;28;20204;-81
2024/01/21 00:53:18;;;;;;;4.13;1.97;;;3.40;39.30;;;;;;5068506;28;20214;-81
2024/01/21 00:55:45;;;;;;;2.20;1.70;;;3.30;39.70;;;;;;5073640;28;20209;-81
2024/01/21 00:58:13;;;;;;;3.80;2.23;;;3.40;39.20;;;;;;5078595;28;20228;-81
2024/01/21 01:00:40;;;;;;;2.20;1.40;;;3.40;39.00;;;;;;5070842;28;20201;-81
2024/01/21 01:03:11;;;;;;;1.90;1.70;;;3.40;39.00;;;;;;5061991;28;20221;-81
2024/01/21 01:05:39;;;;;;;3.07;2.00;;;3.40;39.20;;;;;;5070080;28;20193;-81
2024/01/21 01:08:07;;;;;;;2.73;1.97;;;3.50;38.90;;;;;;5064155;28;20206;-81
2024/01/21 01:10:34;;;;;;;1.90;1.50;;;3.50;39.00;;;;;;5064866;28;20210;-82
2024/01/21 01:13:02;;;;;;;3.10;2.10;;;3.50;38.90;;;;;;5052943;28;20221;-82
2024/01/21 01:15:30;;;;;;;3.50;1.90;;;3.50;38.80;;;;;;5064968;28;20210;-82
2024/01/21 01:17:57;;;;;;;2.03;1.37;;;3.60;38.50;;;;;;5068492;28;20226;-82
2024/01/21 01:20:26;;;;;;;2.97;2.10;;;3.60;38.90;;;;;;5060563;28;20201;-82
2024/01/21 01:22:53;;;;;;;3.13;2.37;;;3.60;38.60;;;;;;5061324;28;20233;-82
2024/01/21 01:25:21;;;;;;;2.93;1.90;;;3.40;39.30;;;;;;5059989;28;20197;-82
2024/01/21 01:27:48;;;;;;;2.00;1.70;;;3.50;39.70;;;;;;5061380;28;20209;-82
2024/01/21 01:30:16;;;;;;;2.83;2.30;;;3.50;39.20;;;;;;5060496;28;20551;-82
2024/01/21 01:32:44;;;;;;;2.50;2.03;;;3.50;39.20;;;;;;5061144;28;20201;-81
2024/01/21 01:35:11;;;;;;;3.20;2.10;;;3.50;39.70;;;;;;5060888;28;20206;-82
2024/01/21 01:37:40;;;;;;;2.33;1.73;;;3.50;39.50;;;;;;5057717;28;20218;-82
2024/01/21 01:40:09;;;;;;;5.30;2.27;;;3.50;39.70;;;;;;5064678;28;20543;-82
2024/01/21 01:42:37;;;;;;;2.87;2.37;;;3.40;40.20;;;;;;5061772;28;20202;-81
2024/01/21 01:45:05;;;;;;;3.90;2.70;;;3.50;39.70;;;;;;5054503;28;20205;-82
2024/01/21 01:47:33;;;;;;;4.50;2.40;;;3.50;39.90;;;;;;5061662;28;20204;-82
2024/01/21 01:50:00;;;;;;;3.17;2.27;;;3.60;39.90;;;;;;5060905;28;20212;-81
2024/01/21 01:52:28;;;;;;;3.07;2.50;;;3.40;39.70;;;;;;5060376;28;20642;-82
2024/01/21 01:54:57;;;;;;;3.47;2.37;;;3.50;39.90;;;;;;5076768;28;20202;-81
2024/01/21 01:57:25;;;;;;;3.90;2.53;;;3.50;39.20;;;;;;5064523;28;20193;-81
2024/01/21 01:59:52;;;;;;;3.43;2.57;;;3.60;39.10;;;;;;5060760;28;20209;-81
2024/01/21 02:02:21;;;;;;;4.37;2.80;;;3.50;39.10;;;;;;5067479;28;20210;-81
2024/01/21 02:04:49;;;;;;;4.80;2.60;;;3.50;39.40;;;;;;5067759;28;20236;-81
2024/01/21 02:07:17;;;;;;;3.77;2.50;;;3.60;39.20;;;;;;5078100;28;20204;-81
2024/01/21 02:09:44;;;;;;;3.13;2.30;;;3.60;38.90;;;;;;5060371;28;20673;-82
2024/01/21 02:12:15;;;;;;;3.37;2.53;;;3.50;39.40;;;;;;5075876;28;20190;-81
2024/01/21 02:14:43;;;;;;;5.07;2.73;;;3.60;39.10;;;;;;5060694;28;20301;-82
2024/01/21 02:17:10;;;;;;;3.77;2.50;;;3.50;39.40;;;;;;5077409;28;20689;-82
2024/01/21 02:19:38;;;;;;;2.50;2.17;;;3.50;39.40;;;;;;5057499;28;20224;-81
2024/01/21 02:22:06;;;;;;;5.43;2.50;;;3.50;39.70;;;;;;5057605;28;20206;-82
2024/01/21 02:24:35;;;;;;;3.97;2.70;;;3.50;39.90;;;;;;5090982;28;20218;-81
2024/01/21 02:27:02;;;;;;;5.50;3.27;;;3.50;39.90;;;;;;5057440;28;20205;-82
2024/01/21 02:29:29;;;;;;;3.87;2.47;;;3.50;39.70;;;;;;5061504;28;20559;-81
2024/01/21 02:31:58;;;;;;;3.00;2.53;;;3.50;40.10;;;;;;5062868;28;20667;-81
2024/01/21 02:34:25;;;;;;;3.57;2.67;;;3.40;40.50;;;;;;5057954;28;20228;-81
2024/01/21 02:36:53;;;;;;;4.20;2.73;;;3.40;40.90;;;;;;5057621;28;20234;-82
2024/01/21 02:39:20;;;;;;;4.10;2.60;;;3.30;41.30;;;;;;5042995;28;20221;-82
2024/01/21 02:41:49;;;;;;;6.13;3.20;;;3.30;41.40;;;;;;5055268;28;20189;-82
2024/01/21 02:44:17;;;;;;;3.50;2.73;;;3.40;41.20;;;;;;5057867;28;20221;-81
2024/01/21 02:46:44;;;;;;;3.33;2.97;;;3.40;40.70;;;;;;5058379;28;20215;-81
2024/01/21 02:49:11;;;;;;;2.93;2.57;;;3.40;41.10;;;;;;5058248;28;20559;-82
2024/01/21 02:51:39;;;;;;;5.07;3.40;;;3.30;41.20;;;;;;5058561;28;20205;-81
2024/01/21 02:54:06;;;;;;;4.37;3.37;;;3.40;41.40;;;;;;5056839;28;20225;-81
2024/01/21 02:56:34;;;;;;;6.60;3.17;;;3.30;41.70;;;;;;5057664;28;20198;-81
2024/01/21 02:59:05;;;;;;;4.07;3.00;;;3.40;41.70;;;;;;5057122;28;20214;-81
2024/01/21 03:01:34;;;;;;;4.80;2.93;;;3.40;41.60;;;;;;5051860;28;20208;-81
2024/01/21 03:04:01;;;;;;;4.60;3.37;;;3.40;42.00;;;;;;5057083;28;20576;-81
2024/01/21 03:06:29;;;;;;;4.97;2.93;;;3.40;42.10;;;;;;5075762;28;20198;-81
2024/01/21 03:08:56;;;;;;;4.73;2.83;;;3.30;42.50;;;;;;5059724;28;20204;-81
2024/01/21 03:11:24;;;;;;;3.83;2.80;;;3.30;42.00;;;;;;5059961;28;20198;-81
2024/01/21 03:13:51;;;;;;;5.50;3.20;;;3.40;41.70;;;;;;5057022;28;20241;-81
2024/01/21 03:16:20;;;;;;;4.53;2.77;;;3.40;41.90;;;;;;5055563;28;20197;-81
2024/01/21 03:18:47;;;;;;;3.23;2.40;;;3.40;41.90;;;;;;5062285;28;20218;-81
2024/01/21 03:21:15;;;;;;;5.37;2.53;;;3.40;41.70;;;;;;5057847;28;20206;-81
2024/01/21 03:23:45;;;;;;;5.17;3.23;;;3.40;41.70;;;;;;5056524;28;20222;-81
2024/01/21 03:26:13;;;;;;;3.67;2.57;;;3.30;42.30;;;;;;5057175;28;20196;-81
2024/01/21 03:28:40;;;;;;;3.10;2.80;;;3.30;42.20;;;;;;5059985;28;20196;-81
2024/01/21 03:31:07;;;;;;;4.40;3.10;;;3.20;42.90;;;;;;5060688;28;20206;-81
2024/01/21 03:33:37;;;;;;;4.67;3.00;;;3.30;42.50;;;;;;5075421;28;20218;-81
2024/01/21 03:36:05;;;;;;;6.00;2.90;;;3.30;42.30;;;;;;5060815;28;20192;-81
2024/01/21 03:38:32;;;;;;;4.57;3.10;;;3.20;42.70;;;;;;5065343;28;20234;-81
2024/01/21 03:41:00;;;;;;;3.63;2.90;;;3.30;43.10;;;;;;5059660;28;20197;-81
2024/01/21 03:43:27;;;;;;;4.07;2.90;;;3.20;42.90;;;;;;5059070;28;20214;-82
2024/01/21 03:45:55;;;;;;;4.33;3.33;;;3.10;42.80;;;;;;5059214;28;20215;-81
2024/01/21 03:48:22;;;;;;;4.63;2.90;;;3.10;43.20;;;;;;5059773;28;20201;-81
2024/01/21 03:50:51;;;;;;;4.80;2.70;;;3.20;43.30;;;;;;5059076;28;20207;-82
2024/01/21 03:53:19;;;;;;;4.60;3.00;;;3.20;43.10;;;;;;5066238;28;20244;-82
2024/01/21 03:55:46;;;;;;;4.63;2.97;;;3.10;43.30;;;;;;5071478;28;20207;-81
2024/01/21 03:58:14;;;;;;;4.30;2.93;;;3.10;43.40;;;;;;5059445;28;20204;-81
2024/01/21 04:00:41;;;;;;;4.90;2.97;;;3.10;43.40;;;;;;5061274;28;20223;-81
2024/01/21 04:03:09;;;;;;;4.50;3.20;;;3.10;43.60;;;;;;5060377;28;20260;-81
2024/01/21 04:05:38;;;;;;;5.33;3.43;;;3.00;43.90;;;;;;5059713;28;20197;-81
2024/01/21 04:08:07;;;;;;;4.67;3.07;;;3.00;44.40;;;;;;5060173;28;20211;-81
2024/01/21 04:10:35;;;;;;;4.17;2.67;;;3.00;44.30;;;;;;5065959;28;20205;-81
2024/01/21 04:13:02;;;;;;;4.43;3.73;;;3.10;43.50;;;;;;5066275;28;20220;-82
2024/01/21 04:15:30;;;;;;;4.57;3.10;;;3.10;43.30;;;;;;5063268;28;20201;-81
2024/01/21 04:17:57;;;;;;;4.30;3.30;;;3.00;44.00;;;;;;5062778;28;20208;-82
2024/01/21 04:20:24;;;;;;;3.63;2.93;;;3.00;44.30;;;;;;5065856;28;20213;-81
2024/01/21 04:22:52;;;;;;;4.40;3.20;;;3.00;44.70;;;;;;5068157;28;20220;-82
2024/01/21 04:25:21;;;;;;;5.40;3.03;;;3.10;43.80;;;;;;5058654;28;20209;-81
2024/01/21 04:27:48;;;;;;;4.37;2.77;;;3.00;43.60;;;;;;5065649;28;20190;-81
2024/01/21 04:30:16;;;;;;;3.70;3.00;;;3.00;43.90;;;;;;5058666;28;20204;-82
2024/01/21 04:32:43;;;;;;;5.67;3.10;;;2.90;44.30;;;;;;5063210;28;20196;-81
2024/01/21 04:35:11;;;;;;;3.73;2.60;;;2.90;44.20;;;;;;5078767;23;20230;-80
2024/01/21 04:37:38;;;;;;;4.30;3.07;;;3.00;44.10;;;;;;5079806;28;20201;-80
2024/01/21 04:40:07;;;;;;;3.70;3.00;;;3.00;44.00;;;;;;5076802;28;20223;-80
2024/01/21 04:42:36;;;;;;;3.57;3.00;;;2.90;43.90;;;;;;5080266;28;20205;-80
2024/01/21 04:45:03;;;;;;;4.83;3.00;;;2.90;44.00;;;;;;5084276;28;20244;-80
2024/01/21 04:47:31;;;;;;;4.17;3.00;;;3.00;43.90;;;;;;5074354;28;20226;-81
2024/01/21 04:49:59;;;;;;;3.70;2.83;;;3.00;43.80;;;;;;5070893;28;20202;-80
2024/01/21 04:52:27;;;;;;;5.83;2.80;;;3.00;43.70;;;;;;5085564;28;20565;-80
2024/01/21 04:54:55;;;;;;;5.33;2.63;;;3.00;43.50;;;;;;5086699;28;20235;-80
2024/01/21 04:57:22;;;;;;;4.63;2.87;;;3.00;43.50;;;;;;5086562;28;20548;-80
2024/01/21 04:59:51;;;;;;;4.90;2.97;;;3.10;43.20;;;;;;5079353;28;20214;-80
2024/01/21 05:02:19;;;;;;;3.27;2.33;;;3.10;42.50;;;;;;5091477;28;20207;-80
2024/01/21 05:04:46;;;;;;;4.03;3.00;;;3.10;42.80;;;;;;5109143;28;20225;-80
2024/01/21 05:07:14;;;;;;;4.37;2.70;;;3.00;43.30;;;;;;5102569;28;20211;-78
2024/01/21 05:09:41;;;;;;;3.97;2.63;;;3.00;43.40;;;;;;5103491;28;20197;-78
2024/01/21 05:12:09;;;;;;;4.77;3.17;;;3.10;43.10;;;;;;5087678;28;20567;-78
2024/01/21 05:14:39;;;;;;;3.47;2.43;;;3.10;43.30;;;;;;5081258;28;20231;-78
2024/01/21 05:17:08;;;;;;;3.93;2.93;;;3.00;43.20;;;;;;5077450;28;20210;-78
2024/01/21 05:19:35;;;;;;;5.17;3.07;;;3.10;43.30;;;;;;5108285;28;20215;-78
2024/01/21 05:22:03;;;;;;;4.03;2.70;;;3.10;43.30;;;;;;5083129;28;20208;-78
2024/01/21 05:24:30;;;;;;;3.80;2.87;;;3.10;43.30;;;;;;5074693;28;20601;-78
2024/01/21 05:26:58;;;;;;;3.03;2.73;;;3.10;43.30;;;;;;5077387;28;20542;-78
2024/01/21 05:29:25;;;;;;;3.87;2.80;;;3.10;43.30;;;;;;5080990;28;20578;-78
2024/01/21 05:31:53;;;;;;;4.90;3.27;;;3.10;43.20;;;;;;5078327;28;20201;-78
2024/01/21 05:34:22;;;;;;;4.07;2.67;;;3.10;43.20;;;;;;5106692;28;20271;-78
2024/01/21 05:36:49;;;;;;;4.27;2.80;;;3.20;43.10;;;;;;5088147;28;20679;-79
2024/01/21 05:39:17;;;;;;;3.87;2.40;;;3.10;43.50;;;;;;5083611;28;20212;-79
2024/01/21 05:41:44;;;;;;;3.80;2.73;;;3.10;43.90;;;;;;5078049;28;20195;-79
2024/01/21 05:44:12;;;;;;;6.63;3.30;;;3.10;43.50;;;;;;5079280;28;20212;-79
2024/01/21 05:46:39;;;;;;;4.10;2.90;;;3.10;43.40;;;;;;5090867;28;20216;-79
2024/01/21 05:49:07;;;;;;;3.87;2.67;;;3.10;43.60;;;;;;5084398;28;20201;-79
2024/01/21 05:51:37;;;;;;;4.97;2.57;;;3.10;43.70;;;;;;5106879;28;20642;-79
2024/01/21 05:54:05;;;;;;;4.87;2.70;;;3.10;43.70;;;;;;5080859;28;20680;-79
2024/01/21 05:56:32;;;;;;;3.70;2.50;;;3.10;43.50;;;;;;5091806;28;20644;-78
2024/01/21 05:59:00;;;;;;;3.13;2.60;;;3.20;43.60;;;;;;5078701;28;20219;-79
2024/01/21 06:01:27;;;;;;;4.70;2.87;;;3.10;43.70;;;;;;5088019;28;20231;-79
2024/01/21 06:03:55;;;;;;;4.40;3.23;;;3.10;44.00;;;;;;5079599;28;20613;-79
2024/01/21 06:06:22;;;;;;;4.60;2.87;;;3.20;43.70;;;;;;5094879;28;20211;-79
2024/01/21 06:08:54;;;;;;;5.77;3.43;;;3.20;44.00;;;;;;5081086;28;20193;-79
2024/01/21 06:11:24;;;;;;;5.20;3.27;;;3.20;43.90;;;;;;5080821;28;20204;-79
2024/01/21 06:13:52;;;;;;;5.37;3.23;;;3.20;44.00;;;;;;5078795;28;20242;-79
2024/01/21 06:16:19;;;;;;;4.27;2.90;;;3.20;44.10;;;;;;5078764;28;20198;-79
2024/01/21 06:18:47;;;;;;;4.23;3.17;;;3.30;44.00;;;;;;5077659;28;20204;-79
2024/01/21 06:21:16;;;;;;;5.10;2.93;;;3.20;44.00;;;;;;5095163;28;20201;-79
2024/01/21 06:23:46;;;;;;;4.20;2.73;;;3.20;44.40;;;;;;5077035;28;20206;-79
2024/01/21 06:26:19;;;;;;;3.73;3.10;;;3.20;44.50;;;;;;5082791;28;20196;-78
2024/01/21 06:28:47;;;;;;;5.23;3.37;;;3.20;44.80;;;;;;5094976;28;20177;-78
2024/01/21 06:31:33;;;;;;;4.83;3.10;;;3.20;45.00;;;;;;5075780;28;20196;-79
2024/01/21 06:34:02;;;;;;;4.23;2.70;;;3.20;45.10;;;;;;5076336;28;20239;-79
2024/01/21 06:36:29;;;;;;;5.23;3.33;;;3.10;45.30;;;;;;5094273;28;20194;-79
2024/01/21 06:38:57;;;;;;;4.87;3.50;;;3.20;45.40;;;;;;5082859;28;20654;-79
2024/01/21 06:41:27;;;;;;;4.90;3.37;;;3.10;45.60;;;;;;5077916;28;20212;-79
2024/01/21 06:43:55;;;;;;;4.53;3.23;;;3.10;45.80;;;;;;5073018;28;20217;-79
2024/01/21 06:46:22;;;;;;;4.40;3.23;;;3.10;45.90;;;;;;5087018;28;20251;-79
2024/01/21 06:48:49;;;;;;;6.27;3.47;;;3.00;46.50;;;;;;5093284;28;20201;-78
2024/01/21 06:51:31;;;;;;;4.13;3.10;;;3.00;46.50;;;;;;5075019;28;20202;-79
2024/01/21 06:54:00;;;;;;;6.83;2.87;;;3.00;46.70;;;;;;5077842;28;20219;-78
2024/01/21 06:56:29;;;;;;;4.17;3.30;;;2.90;47.10;;;;;;5094751;28;20190;-79
2024/01/21 06:58:58;;;;;;;6.13;4.00;;;2.90;47.50;;;;;;5068818;28;20589;-79
2024/01/21 07:01:25;;;;;;;4.20;2.63;;;3.00;47.50;;;;;;5082177;28;20203;-78
2024/01/21 07:03:53;;;;;;;4.27;3.00;;;3.70;55.00;;;;;;5079991;28;20224;-78
2024/01/21 07:06:21;;;;;;;4.50;3.50;;;5.00;56.00;;;;;;5074649;28;20193;-79
2024/01/21 07:08:49;;;;;;;6.93;4.30;;;5.30;51.30;;;;;;5085869;28;20206;-79
2024/01/21 07:11:17;;;;;;;5.40;4.00;;;3.70;48.30;;;;;;5073829;28;20185;-79
2024/01/21 07:13:47;;;;;;;9.27;3.53;;;3.30;49.10;;;;;;5079443;28;20219;-78
2024/01/21 07:16:20;;;;;;;5.33;3.80;;;3.20;49.70;;;;;;5075419;28;20208;-79
2024/01/21 07:18:48;;;;;;;6.10;3.90;;;3.20;49.50;;;;;;5073588;28;20201;-79
2024/01/21 07:21:15;;;;;;;6.70;3.63;;;3.20;49.70;;;;;;5071881;28;20223;-78
2024/01/21 07:23:43;;;;;;;5.77;4.13;;;3.20;49.40;;;;;;5075210;28;20219;-78
2024/01/21 07:26:12;;;;;;;5.20;3.80;;;3.20;49.60;;;;;;5089703;28;20202;-78
2024/01/21 07:29:06;;;;;;;5.63;3.47;;;3.20;49.90;;;;;;5092812;28;20217;-77
2024/01/21 07:31:34;;;;;;;5.30;3.47;;;3.20;50.30;;;;;;5084000;28;20198;-78
2024/01/21 07:34:02;;;;;;;6.97;4.43;;;3.10;50.90;;;;;;5070993;28;20231;-79
2024/01/21 07:36:29;;;;;;;4.67;3.57;;;3.10;50.80;;;;;;5083128;28;20725;-78
2024/01/21 07:38:56;;;;;;;4.93;3.70;;;3.10;50.80;;;;;;5068263;28;20208;-78
2024/01/21 07:41:27;;;;;;;6.13;4.57;;;3.10;51.00;;;;;;5078848;28;20246;-78
2024/01/21 07:43:59;;;;;;;4.87;4.33;;;3.20;51.40;;;;;;5075183;28;20590;-79
2024/01/21 07:46:46;;;;;;;6.07;4.20;;;3.10;51.20;;;;;;5059331;28;20204;-78
2024/01/21 07:49:27;;;;;;;5.57;4.30;;;3.10;51.40;;;;;;5085687;28;20540;-78
2024/01/21 07:51:54;;;;;;;5.93;4.13;;;3.10;51.60;;;;;;5093662;28;20186;-78
2024/01/21 07:54:22;;;;;;;5.40;4.20;;;3.10;51.60;;;;;;5084976;28;20205;-78
2024/01/21 07:56:50;;;;;;;5.40;4.40;;;3.10;51.60;;;;;;5088614;28;20198;-79
2024/01/21 07:59:18;;;;;;;6.60;4.03;;;3.20;52.10;;;;;;5076896;28;20776;-78
2024/01/21 08:01:47;;;;;;;6.47;4.60;;;3.20;51.20;;;;;;5069399;28;20224;-78
2024/01/21 08:04:14;;;;;;;7.30;4.20;;;3.20;50.90;;;;;;5072084;28;20245;-78
2024/01/21 08:06:42;;;;;;;6.37;4.67;;;3.30;51.00;;;;;;4975756;28;20239;-78
2024/01/21 08:09:09;;;;;;;6.00;4.83;;;3.40;49.90;;;;;;5038577;28;20212;-79
2024/01/21 08:11:37;;;;;;;7.30;4.57;;;3.50;49.90;;;;;;5029918;28;20201;-79
2024/01/21 08:14:04;;;;;;;7.03;4.57;;;3.50;49.90;;;;;;5030845;28;20222;-79
2024/01/21 08:16:32;;;;;;;8.70;4.43;;;3.50;49.40;;;;;;5038163;28;20210;-79
2024/01/21 08:19:03;;;;;;;6.67;4.10;;;3.50;49.40;;;;;;5047229;28;20208;-78
2024/01/21 08:21:37;;;;;;;6.57;4.43;;;3.60;49.00;;;;;;5043697;28;20240;-78
2024/01/21 08:24:05;;;;;;;6.30;4.57;;;3.60;48.80;;;;;;5038466;28;20236;-78
2024/01/21 08:26:32;;;;;;;5.23;4.13;;;3.60;48.70;;;;;;5039371;28;20199;-79
2024/01/21 08:29:03;;;;;;;5.83;4.03;;;3.70;48.50;;;;;;5025636;28;20210;-78
2024/01/21 08:32:11;;;;;;;6.10;4.57;;;3.70;48.30;;;;;;5030066;28;20198;-78
2024/01/21 08:34:40;;;;;;;6.70;4.00;;;3.80;48.30;;;;;;5031323;28;20237;-78
2024/01/21 08:37:07;;;;;;;5.50;3.87;;;3.90;47.70;;;;;;5049991;28;20205;-78
2024/01/21 08:39:35;;;;;;;7.97;4.50;;;3.80;47.90;;;;;;5039169;28;20206;-79
2024/01/21 08:42:03;;;;;;;5.37;4.27;;;3.90;47.90;;;;;;5039438;28;20216;-79
2024/01/21 08:44:30;;;;;;;5.37;3.93;;;3.90;47.80;;;;;;5029487;28;20226;-78
2024/01/21 08:46:59;;;;;;;4.50;3.37;;;3.90;47.30;;;;;;5032384;28;20203;-77
2024/01/21 08:49:27;;;;;;;6.57;4.90;;;4.10;46.60;;;;;;5029313;28;20207;-77
2024/01/21 08:51:56;;;;;;;6.43;4.67;;;4.00;46.90;;;;;;5034899;28;20209;-78
2024/01/21 08:54:23;;;;;;;5.97;4.50;;;4.00;47.50;;;;;;5037062;28;20218;-78
2024/01/21 08:56:52;;;;;;;5.53;4.43;;;4.00;47.30;;;;;;5032931;28;20210;-79
2024/01/21 08:59:21;;;;;;;6.03;4.40;;;4.10;47.90;;;;;;5035711;28;20198;-79
2024/01/21 09:01:49;;;;;;;5.77;4.83;;;4.00;47.50;;;;;;5054457;28;20210;-78
2024/01/21 09:04:17;;;;;;;7.80;5.30;;;4.00;47.50;;;;;;5035276;28;20214;-78
2024/01/21 09:06:45;;;;;;;8.00;5.30;;;4.00;48.20;;;;;;5050593;28;20194;-79
2024/01/21 09:09:17;;;;;;;7.27;5.23;;;3.90;48.90;;;;;;5034725;28;20202;-78
2024/01/21 09:11:47;;;;;;;6.50;4.60;;;3.90;49.20;;;;;;5054923;28;20674;-78
2024/01/21 09:14:15;;;;;;;7.77;4.90;;;3.90;49.60;;;;;;5038483;28;20218;-78
2024/01/21 09:17:11;;;;;;;7.50;4.50;;;3.90;49.60;;;;;;5036731;28;20217;-78
2024/01/21 09:19:39;;;;;;;10.43;5.33;;;3.90;49.60;;;;;;5038773;28;20213;-78
2024/01/21 09:22:17;;;;;;;10.33;4.97;;;3.90;49.80;;;;;;5046463;28;20218;-78
2024/01/21 09:25:15;;;;;;;7.47;5.03;;;4.00;50.10;;;;;;5030645;28;20218;-78
2024/01/21 09:27:44;;;;;;;7.17;4.67;;;4.00;50.20;;;;;;5030077;28;20657;-78
2024/01/21 09:30:13;;;;;;;6.70;4.57;;;4.10;50.20;;;;;;5035653;28;20195;-78
2024/01/21 09:32:41;;;;;;;6.70;4.97;;;4.10;50.30;;;;;;5036435;28;20198;-78
2024/01/21 09:35:09;;;;;;;6.57;4.87;;;4.20;49.80;;;;;;5035892;28;20242;-79
2024/01/21 09:37:44;;;;;;;5.93;4.73;;;4.20;50.00;;;;;;5033725;28;20533;-79
2024/01/21 09:40:12;;;;;;;5.70;4.90;;;4.20;50.10;;;;;;5054531;28;20190;-79
2024/01/21 09:42:40;;;;;;;6.97;5.30;;;4.20;49.80;;;;;;5035993;28;20208;-79
2024/01/21 09:45:11;;;;;;;7.97;5.50;;;4.20;49.40;;;;;;5032752;28;20216;-79
2024/01/21 09:47:48;;;;;;;7.50;5.40;;;4.30;49.20;;;;;;5051519;28;20195;-79
2024/01/21 09:50:19;;;;;;;9.10;5.07;;;4.30;49.30;;;;;;5035403;28;20202;-78
2024/01/21 09:52:46;;;;;;;5.87;4.57;;;4.20;49.50;;;;;;5035519;28;20194;-78
2024/01/21 09:55:14;;;;;;;9.93;5.57;;;4.20;49.70;;;;;;5025526;28;20223;-78
2024/01/21 09:57:52;;;;;;;7.23;5.50;;;4.20;49.80;;;;;;5037315;28;20211;-78
2024/01/21 10:00:21;;;;;;;7.03;5.10;;;4.10;50.30;;;;;;5035690;28;20194;-79
2024/01/21 10:02:53;;;;;;;8.90;5.50;;;4.10;51.00;;;;;;5054525;28;20230;-79
2024/01/21 10:05:32;;;;;;;7.67;5.50;;;4.10;52.00;;;;;;5028627;28;20226;-79
2024/01/21 10:07:59;;;;;;;9.67;5.40;;;4.10;53.00;;;;;;5048335;28;20208;-79
2024/01/21 10:10:27;;;;;;;7.87;5.03;;;4.00;54.10;;;;;;5042340;28;20223;-77
2024/01/21 10:12:55;;;;;;;9.00;5.60;;;4.10;55.10;;;;;;5047378;28;20200;-77
2024/01/21 10:15:23;;;;;;;7.77;5.43;;;4.10;55.80;;;;;;5044191;28;20226;-78
2024/01/21 10:17:52;;;;;;;8.63;5.80;;;4.20;56.40;;;;;;5044834;28;20207;-77
2024/01/21 10:20:19;;;;;;;7.57;5.50;;;4.20;56.80;;;;;;5049295;28;20201;-78
2024/01/21 10:22:48;;;;;;;7.67;5.67;;;4.30;57.10;;;;;;5044777;28;20234;-78
2024/01/21 10:25:16;;;;;;;8.03;5.47;;;4.30;57.90;;;;;;5058323;28;20226;-77
2024/01/21 10:27:46;;;;;;;9.57;6.37;;;4.30;57.70;;;;;;5047028;28;20214;-77
2024/01/21 10:30:15;;;;;;;8.33;5.77;;;4.40;58.20;;;;;;5042322;28;20209;-78
2024/01/21 10:32:44;;;;;;;8.23;5.47;;;4.40;58.30;;;;;;5043477;28;20203;-79
2024/01/21 10:35:11;;;;;;;8.83;6.10;;;4.50;59.10;;;;;;5048642;28;20233;-79
2024/01/21 10:37:41;;;;;;;7.70;5.40;;;4.50;59.60;;;;;;5036769;28;20217;-79
2024/01/21 10:40:18;;;;;;;6.70;4.90;;;4.50;60.40;;;;;;5036481;28;20206;-79
2024/01/21 10:42:53;;;;;;;6.43;4.70;;;4.50;61.10;;;;;;5050676;28;20217;-78
2024/01/21 10:45:22;;;;;;;6.47;4.93;;;4.60;62.00;;;;;;5034552;28;20222;-78
2024/01/21 10:47:52;;;;;;;7.87;5.27;;;4.70;63.00;;;;;;5045318;28;20207;-79
2024/01/21 10:50:21;;;;;;;6.67;5.57;;;4.60;63.90;;;;;;5060264;28;20214;-79
2024/01/21 10:52:49;;;;;;;7.40;5.30;;;4.70;65.60;;;;;;5032440;28;20210;-78
2024/01/21 10:55:17;;;;;;;7.47;5.00;;;4.80;67.50;;;;;;5053405;28;20216;-79
2024/01/21 10:57:47;;;;;;;6.20;4.70;;;4.70;70.10;;;;;;5036143;28;20212;-79
2024/01/21 11:00:16;;;;;;;6.87;4.90;;;4.80;72.40;;;;;;5037047;28;20209;-79
2024/01/21 11:03:24;;;;;;;6.73;4.60;;;4.80;74.80;;;;;;5034507;28;20541;-79
2024/01/21 11:05:59;;;;;;;7.60;5.43;;;4.80;77.30;;;;;;5055655;28;20214;-79
2024/01/21 11:08:31;;;;;;;8.50;4.97;;;4.80;80.40;;;;;;5037035;28;20194;-79
2024/01/21 11:11:08;;;;;;;7.07;5.03;;;4.70;85.30;;;;;;5033001;28;20203;-78
2024/01/21 11:13:40;;;;;;;7.67;5.17;;;4.60;87.60;;;;;;5035753;28;20207;-79
2024/01/21 11:16:07;;;;;;;7.73;4.97;;;4.60;89.60;;;;;;5037710;28;20194;-79
2024/01/21 11:18:37;;;;;;;7.63;5.03;;;4.60;90.10;;;;;;5058309;28;20209;-78
2024/01/21 11:21:04;;;;;;;6.80;5.43;;;4.60;90.50;;;;;;5036226;28;20194;-79
2024/01/21 11:23:34;;;;;;;9.90;5.97;;;4.60;90.90;;;;;;5033224;28;20219;-79
2024/01/21 11:26:02;;;;;;;7.17;5.07;;;4.60;91.60;;;;;;5031420;28;20190;-78
2024/01/21 11:28:39;;;;;;;6.93;5.37;;;4.50;93.00;;;;;;5036111;28;20204;-79
2024/01/21 11:31:08;;;;;;;9.47;5.90;;;4.50;93.90;;;;;;5027488;28;20198;-78
2024/01/21 11:33:38;;;;;;;7.63;5.03;;;4.60;94.10;;;;;;5028357;28;20209;-78
2024/01/21 11:36:05;;;;;;;6.07;4.83;;;4.50;95.20;;;;;;5046561;28;20203;-79
2024/01/21 11:38:34;;;;;;;7.73;5.30;;;4.40;95.90;;;;;;5036636;28;20202;-78
2024/01/21 11:41:04;;;;;;;10.87;6.27;;;4.40;96.30;;;;;;5036617;28;20204;-79
2024/01/21 11:43:32;;;;;;;7.80;5.73;;;4.50;97.20;;;;;;5053171;28;20832;-80
2024/01/21 11:46:01;;;;;;;8.03;5.90;;;4.30;97.70;;;;;;5052631;28;20207;-80
2024/01/21 11:48:31;;;;;;;8.90;5.60;;;4.40;98.30;;;;;;5034866;28;20203;-80
2024/01/21 11:51:00;;;;;;;8.57;5.47;;;4.30;98.60;;;;;;5040288;28;20214;-80
2024/01/21 11:53:28;;;;;;;7.53;6.77;;;4.30;99.30;;;;;;5039347;28;20209;-79
2024/01/21 11:55:56;;;;;;;8.83;6.60;;;4.20;99.90;;;;;;5040661;28;20210;-79
2024/01/21 11:58:23;;;;;;;9.00;6.40;;;4.20;99.90;;;;;;5039201;28;20572;-80
2024/01/21 12:00:51;;;;;;;9.10;6.23;;;4.20;99.90;;;;;;5039526;28;20206;-80
2024/01/21 12:03:18;;;;;;;7.93;6.00;;;4.20;99.90;;;;;;5039722;28;20221;-79
2024/01/21 12:05:46;;;;;;;7.30;5.77;;;4.30;99.90;;;;;;5035718;28;20232;-79
2024/01/21 12:08:15;;;;;;;8.23;6.00;;;4.30;99.90;;;;;;5038691;28;20191;-79
2024/01/21 12:10:43;;;;;;;8.03;6.00;;;4.30;99.90;;;;;;5039251;28;20210;-79
2024/01/21 12:13:10;;;;;;;10.43;6.33;;;4.30;99.90;;;;;;5040547;28;20205;-80
2024/01/21 12:15:41;;;;;;;8.07;5.87;;;4.30;99.90;;;;;;5044135;28;20221;-79
2024/01/21 12:18:13;;;;;;;9.93;5.70;;;4.30;99.90;;;;;;5057463;28;20205;-81
2024/01/21 12:20:41;;;;;;;7.77;5.60;;;4.30;99.90;;;;;;5038271;28;20219;-80
2024/01/21 12:23:21;;;;;;;8.43;6.43;;;4.40;99.90;;;;;;5038148;28;20206;-79
2024/01/21 12:25:57;;;;;;;8.20;5.27;;;4.40;99.90;;;;;;5048480;28;20219;-79
2024/01/21 12:28:33;;;;;;;7.67;5.67;;;4.40;99.90;;;;;;5034649;28;20208;-80
2024/01/21 12:31:00;;;;;;;7.07;5.47;;;4.40;99.90;;;;;;5039269;28;20213;-80
2024/01/21 12:33:28;;;;;;;8.90;5.93;;;4.40;99.90;;;;;;5038620;28;20555;-79
2024/01/21 12:35:55;;;;;;;8.03;5.53;;;4.50;99.90;;;;;;5040411;28;20555;-80
2024/01/21 12:38:24;;;;;;;8.87;6.50;;;4.50;99.90;;;;;;5051050;28;20198;-80
2024/01/21 12:40:52;;;;;;;7.93;5.50;;;4.40;99.90;;;;;;5034355;28;20199;-80
2024/01/21 12:43:19;;;;;;;9.43;5.93;;;4.50;99.90;;;;;;5032214;28;20234;-79
2024/01/21 12:45:54;;;;;;;15.20;6.90;;;4.50;99.90;;;;;;5030268;28;20728;-79
2024/01/21 12:48:21;;;;;;;8.37;6.13;;;4.60;99.90;;;;;;5038139;28;20206;-79
2024/01/21 12:50:59;;;;;;;9.83;6.67;;;4.60;99.90;;;;;;5037402;28;20597;-79
2024/01/21 12:53:28;;;;;;;9.97;5.67;;;4.60;99.90;;;;;;5038007;28;20556;-79
2024/01/21 12:55:56;;;;;;;7.47;6.00;;;4.60;99.90;;;;;;5033372;28;20206;-80
2024/01/21 12:58:23;;;;;;;7.93;5.57;;;4.70;99.90;;;;;;5038600;28;20223;-80
2024/01/21 13:00:51;;;;;;;8.33;5.83;;;4.70;99.90;;;;;;5038378;28;20883;-80
2024/01/21 13:03:19;;;;;;;8.27;6.20;;;4.70;99.90;;;;;;5029861;28;20679;-80
2024/01/21 13:05:47;;;;;;;8.13;6.53;;;4.70;99.90;;;;;;5033402;28;20309;-80
2024/01/21 13:08:15;;;;;;;8.50;5.83;;;4.80;99.90;;;;;;5036958;28;20201;-80